createdAt,value
2023-02-19T00:00:18.910Z,1013.12
2023-02-19T00:01:18.932Z,1013.09
2023-02-19T00:02:18.958Z,1013.15
2023-02-19T00:03:19.057Z,1013.18
2023-02-19T00:04:19.026Z,1013.17
2023-02-19T00:05:19.043Z,1013.14
2023-02-19T00:06:19.058Z,1013.07
2023-02-19T00:07:19.083Z,1013.11
2023-02-19T00:08:19.107Z,1013.09
2023-02-19T00:09:19.139Z,1013.05
2023-02-19T00:10:19.157Z,1013.03
2023-02-19T00:11:19.215Z,1013.04
2023-02-19T00:12:19.210Z,1012.99
2023-02-19T00:13:19.238Z,1013.00
2023-02-19T00:14:19.258Z,1012.98
2023-02-19T00:15:19.287Z,1012.95
2023-02-19T00:16:19.314Z,1012.96
2023-02-19T00:17:19.337Z,1012.96
2023-02-19T00:18:19.361Z,1012.98
2023-02-19T00:19:19.415Z,1012.97
2023-02-19T00:20:19.412Z,1012.95
2023-02-19T00:21:19.444Z,1012.95
2023-02-19T00:22:19.464Z,1012.91
2023-02-19T00:23:19.490Z,1012.95
2023-02-19T00:24:19.515Z,1012.95
2023-02-19T00:25:19.541Z,1012.93
2023-02-19T00:26:19.566Z,1012.95
2023-02-19T00:27:19.591Z,1012.92
2023-02-19T00:28:19.618Z,1012.90
2023-02-19T00:29:19.647Z,1012.93
2023-02-19T00:30:19.696Z,1012.91
2023-02-19T00:31:19.880Z,1012.86
2023-02-19T00:32:19.761Z,1012.93
2023-02-19T00:33:19.747Z,1012.87
2023-02-19T00:34:19.777Z,1012.88
2023-02-19T00:35:19.821Z,1012.91
2023-02-19T00:36:19.823Z,1012.92
2023-02-19T00:37:19.864Z,1012.96
2023-02-19T00:38:19.876Z,1012.91
2023-02-19T00:39:19.902Z,1012.88
2023-02-19T00:40:19.927Z,1012.87
2023-02-19T00:41:19.971Z,1012.84
2023-02-19T00:42:19.980Z,1012.83
2023-02-19T00:43:20.016Z,1012.83
2023-02-19T00:44:20.027Z,1012.83
2023-02-19T00:45:20.056Z,1012.81
2023-02-19T00:46:20.125Z,1012.83
2023-02-19T00:47:20.108Z,1012.80
2023-02-19T00:48:20.130Z,1012.79
2023-02-19T00:49:20.184Z,1012.79
2023-02-19T00:50:20.189Z,1012.82
2023-02-19T00:51:20.232Z,1012.85
2023-02-19T00:52:20.234Z,1012.85
2023-02-19T00:53:20.264Z,1012.82
2023-02-19T00:54:20.300Z,1012.82
2023-02-19T00:55:20.317Z,1012.80
2023-02-19T00:56:20.337Z,1012.82
2023-02-19T00:57:20.413Z,1012.82
2023-02-19T00:58:20.388Z,1012.87
2023-02-19T00:59:20.414Z,1012.81
2023-02-19T01:00:20.441Z,1012.79
2023-02-19T01:01:20.488Z,1012.77
2023-02-19T01:02:20.492Z,1012.75
2023-02-19T01:03:20.518Z,1012.75
2023-02-19T01:04:20.625Z,1012.75
2023-02-19T01:05:20.616Z,1012.74
2023-02-19T01:06:20.616Z,1012.67
2023-02-19T01:07:20.634Z,1012.67
2023-02-19T01:08:20.656Z,1012.69
2023-02-19T01:09:20.667Z,1012.76
2023-02-19T01:10:20.689Z,1012.68
2023-02-19T01:11:20.721Z,1012.64
2023-02-19T01:12:20.741Z,1012.68
2023-02-19T01:13:21.006Z,1012.72
2023-02-19T01:14:20.793Z,1012.68
2023-02-19T01:15:20.820Z,1012.74
2023-02-19T01:16:21.000Z,1012.74
2023-02-19T01:17:20.871Z,1012.73
2023-02-19T01:18:20.895Z,1012.78
2023-02-19T01:19:20.941Z,1012.73
2023-02-19T01:20:21.016Z,1012.77
2023-02-19T01:21:20.989Z,1012.80
2023-02-19T01:22:20.996Z,1012.69
2023-02-19T01:23:21.045Z,1012.64
2023-02-19T01:24:21.048Z,1012.69
2023-02-19T01:25:21.079Z,1012.64
2023-02-19T01:26:21.098Z,1012.66
2023-02-19T01:27:21.126Z,1012.65
2023-02-19T01:28:21.150Z,1012.65
2023-02-19T01:29:21.177Z,1012.63
2023-02-19T01:30:21.258Z,1012.62
2023-02-19T01:31:21.396Z,1012.57
2023-02-19T01:32:21.278Z,1012.58
2023-02-19T01:33:21.283Z,1012.63
2023-02-19T01:34:21.309Z,1012.57
2023-02-19T01:35:21.334Z,1012.63
2023-02-19T01:36:21.372Z,1012.61
2023-02-19T01:37:21.380Z,1012.68
2023-02-19T01:38:21.408Z,1012.64
2023-02-19T01:39:21.468Z,1012.62
2023-02-19T01:40:21.458Z,1012.69
2023-02-19T01:41:21.485Z,1012.72
2023-02-19T01:42:21.513Z,1012.70
2023-02-19T01:43:21.535Z,1012.70
2023-02-19T01:44:21.563Z,1012.66
2023-02-19T01:45:21.601Z,1012.62
2023-02-19T01:46:21.709Z,1012.58
2023-02-19T01:47:21.639Z,1012.63
2023-02-19T01:48:21.675Z,1012.64
2023-02-19T01:49:21.721Z,1012.62
2023-02-19T01:50:21.717Z,1012.63
2023-02-19T01:51:21.744Z,1012.61
2023-02-19T01:52:21.771Z,1012.64
2023-02-19T01:53:21.795Z,1012.64
2023-02-19T01:54:21.820Z,1012.60
2023-02-19T01:55:21.874Z,1012.58
2023-02-19T01:56:21.875Z,1012.62
2023-02-19T01:57:21.905Z,1012.64
2023-02-19T01:58:21.924Z,1012.66
2023-02-19T01:59:21.951Z,1012.55
2023-02-19T02:00:21.981Z,1012.59
2023-02-19T02:01:22.002Z,1012.59
2023-02-19T02:02:22.026Z,1012.57
2023-02-19T02:03:22.054Z,1012.52
2023-02-19T02:04:22.078Z,1012.58
2023-02-19T02:05:22.106Z,1012.61
2023-02-19T02:06:22.129Z,1012.63
2023-02-19T02:07:22.155Z,1012.56
2023-02-19T02:08:22.182Z,1012.56
2023-02-19T02:09:22.205Z,1012.52
2023-02-19T02:10:22.309Z,1012.52
2023-02-19T02:11:22.280Z,1012.52
2023-02-19T02:12:22.284Z,1012.49
2023-02-19T02:13:22.313Z,1012.52
2023-02-19T02:14:22.337Z,1012.54
2023-02-19T02:15:22.412Z,1012.49
2023-02-19T02:16:22.488Z,1012.46
2023-02-19T02:17:22.416Z,1012.53
2023-02-19T02:18:22.442Z,1012.54
2023-02-19T02:19:22.465Z,1012.53
2023-02-19T02:20:22.493Z,1012.58
2023-02-19T02:21:22.517Z,1012.54
2023-02-19T02:22:22.548Z,1012.55
2023-02-19T02:23:22.569Z,1012.51
2023-02-19T02:24:22.594Z,1012.54
2023-02-19T02:25:22.621Z,1012.50
2023-02-19T02:26:22.709Z,1012.54
2023-02-19T02:27:22.698Z,1012.52
2023-02-19T02:28:22.701Z,1012.53
2023-02-19T02:29:22.726Z,1012.47
2023-02-19T02:30:22.791Z,1012.48
2023-02-19T02:31:22.887Z,1012.54
2023-02-19T02:32:22.835Z,1012.45
2023-02-19T02:33:22.833Z,1012.54
2023-02-19T02:34:22.858Z,1012.48
2023-02-19T02:35:22.878Z,1012.52
2023-02-19T02:36:22.903Z,1012.44
2023-02-19T02:37:22.929Z,1012.43
2023-02-19T02:38:22.966Z,1012.41
2023-02-19T02:39:22.980Z,1012.45
2023-02-19T02:40:23.007Z,1012.44
2023-02-19T02:41:23.040Z,1012.45
2023-02-19T02:42:23.061Z,1012.45
2023-02-19T02:43:23.087Z,1012.43
2023-02-19T02:44:23.110Z,1012.43
2023-02-19T02:45:23.164Z,1012.44
2023-02-19T02:46:23.182Z,1012.41
2023-02-19T02:47:23.186Z,1012.46
2023-02-19T02:48:23.214Z,1012.43
2023-02-19T02:49:23.385Z,1012.38
2023-02-19T02:50:23.263Z,1012.41
2023-02-19T02:51:23.293Z,1012.42
2023-02-19T02:52:23.314Z,1012.44
2023-02-19T02:53:23.341Z,1012.36
2023-02-19T02:54:23.368Z,1012.41
2023-02-19T02:55:23.390Z,1012.38
2023-02-19T02:56:23.417Z,1012.42
2023-02-19T02:57:23.442Z,1012.45
2023-02-19T02:58:23.470Z,1012.41
2023-02-19T02:59:23.497Z,1012.36
2023-02-19T03:00:23.521Z,1012.41
2023-02-19T03:01:23.590Z,1012.39
2023-02-19T03:02:23.600Z,1012.39
2023-02-19T03:03:23.598Z,1012.40
2023-02-19T03:04:23.626Z,1012.35
2023-02-19T03:05:23.648Z,1012.36
2023-02-19T03:06:23.676Z,1012.45
2023-02-19T03:07:23.703Z,1012.43
2023-02-19T03:08:23.727Z,1012.54
2023-02-19T03:09:23.749Z,1012.52
2023-02-19T03:10:23.783Z,1012.50
2023-02-19T03:11:23.805Z,1012.51
2023-02-19T03:12:23.830Z,1012.55
2023-02-19T03:13:23.855Z,1012.53
2023-02-19T03:14:23.880Z,1012.57
2023-02-19T03:15:23.904Z,1012.64
2023-02-19T03:16:23.974Z,1012.58
2023-02-19T03:17:23.958Z,1012.58
2023-02-19T03:18:23.984Z,1012.55
2023-02-19T03:19:24.010Z,1012.62
2023-02-19T03:20:24.047Z,1012.62
2023-02-19T03:21:24.072Z,1012.53
2023-02-19T03:22:24.085Z,1012.58
2023-02-19T03:23:24.110Z,1012.62
2023-02-19T03:24:24.136Z,1012.68
2023-02-19T03:25:24.196Z,1012.61
2023-02-19T03:26:24.189Z,1012.63
2023-02-19T03:27:24.211Z,1012.68
2023-02-19T03:28:24.237Z,1012.66
2023-02-19T03:29:24.269Z,1012.67
2023-02-19T03:30:24.321Z,1012.73
2023-02-19T03:31:24.401Z,1012.71
2023-02-19T03:32:24.339Z,1012.74
2023-02-19T03:33:24.365Z,1012.61
2023-02-19T03:34:26.120Z,1012.72
2023-02-19T03:35:24.416Z,1012.68
2023-02-19T03:36:24.443Z,1012.65
2023-02-19T03:37:24.478Z,1012.68
2023-02-19T03:38:24.494Z,1012.68
2023-02-19T03:39:24.525Z,1012.78
2023-02-19T03:40:24.544Z,1012.69
2023-02-19T03:41:24.569Z,1012.77
2023-02-19T03:42:24.607Z,1012.82
2023-02-19T03:43:24.634Z,1012.79
2023-02-19T03:44:24.649Z,1012.73
2023-02-19T03:45:24.674Z,1012.75
2023-02-19T03:46:24.705Z,1012.79
2023-02-19T03:47:24.726Z,1012.80
2023-02-19T03:48:24.752Z,1012.76
2023-02-19T03:49:24.775Z,1012.82
2023-02-19T03:50:24.800Z,1012.84
2023-02-19T03:51:24.829Z,1012.87
2023-02-19T03:52:24.856Z,1012.92
2023-02-19T03:53:24.881Z,1012.90
2023-02-19T03:54:24.905Z,1012.83
2023-02-19T03:55:24.928Z,1012.84
2023-02-19T03:56:24.955Z,1012.94
2023-02-19T03:57:24.998Z,1012.87
2023-02-19T03:58:25.013Z,1012.94
2023-02-19T03:59:25.033Z,1012.98
2023-02-19T04:00:25.059Z,1012.93
2023-02-19T04:01:25.083Z,1012.96
2023-02-19T04:02:25.178Z,1012.99
2023-02-19T04:03:25.136Z,1012.96
2023-02-19T04:04:25.215Z,1013.03
2023-02-19T04:05:25.195Z,1012.95
2023-02-19T04:06:25.218Z,1012.97
2023-02-19T04:07:25.238Z,1013.03
2023-02-19T04:08:25.269Z,1012.99
2023-02-19T04:09:25.291Z,1013.06
2023-02-19T04:10:25.317Z,1013.03
2023-02-19T04:11:25.342Z,1013.02
2023-02-19T04:12:25.375Z,1013.10
2023-02-19T04:13:25.392Z,1013.08
2023-02-19T04:14:25.419Z,1013.08
2023-02-19T04:15:25.445Z,1013.09
2023-02-19T04:16:25.488Z,1013.11
2023-02-19T04:17:25.504Z,1013.10
2023-02-19T04:18:25.522Z,1013.17
2023-02-19T04:19:25.546Z,1013.13
2023-02-19T04:20:25.622Z,1013.14
2023-02-19T04:21:25.598Z,1013.12
2023-02-19T04:22:25.631Z,1013.17
2023-02-19T04:23:25.662Z,1013.16
2023-02-19T04:24:25.677Z,1013.19
2023-02-19T04:25:25.699Z,1013.19
2023-02-19T04:26:25.728Z,1013.22
2023-02-19T04:27:25.767Z,1013.22
2023-02-19T04:28:25.777Z,1013.21
2023-02-19T04:29:25.799Z,1013.25
2023-02-19T04:30:25.878Z,1013.25
2023-02-19T04:31:25.940Z,1013.26
2023-02-19T04:32:25.874Z,1013.17
2023-02-19T04:33:25.899Z,1013.24
2023-02-19T04:34:25.928Z,1013.32
2023-02-19T04:35:25.953Z,1013.37
2023-02-19T04:36:25.979Z,1013.39
2023-02-19T04:37:26.001Z,1013.30
2023-02-19T04:38:26.034Z,1013.41
2023-02-19T04:39:26.055Z,1013.41
2023-02-19T04:40:26.082Z,1013.41
2023-02-19T04:41:26.104Z,1013.38
2023-02-19T04:42:26.129Z,1013.32
2023-02-19T04:43:26.157Z,1013.42
2023-02-19T04:44:26.185Z,1013.40
2023-02-19T04:45:26.207Z,1013.43
2023-02-19T04:46:26.288Z,1013.51
2023-02-19T04:47:26.255Z,1013.53
2023-02-19T04:48:26.289Z,1013.53
2023-02-19T04:49:26.316Z,1013.63
2023-02-19T04:50:26.333Z,1013.55
2023-02-19T04:51:26.356Z,1013.52
2023-02-19T04:52:26.382Z,1013.58
2023-02-19T04:53:26.404Z,1013.60
2023-02-19T04:54:26.435Z,1013.62
2023-02-19T04:55:26.455Z,1013.61
2023-02-19T04:56:26.482Z,1013.60
2023-02-19T04:57:26.505Z,1013.60
2023-02-19T04:58:26.545Z,1013.57
2023-02-19T04:59:26.556Z,1013.57
2023-02-19T05:00:26.583Z,1013.52
2023-02-19T05:01:26.657Z,1013.58
2023-02-19T05:02:26.636Z,1013.63
2023-02-19T05:03:26.659Z,1013.57
2023-02-19T05:04:26.750Z,1013.60
2023-02-19T05:05:26.708Z,1013.70
2023-02-19T05:06:26.737Z,1013.64
2023-02-19T05:07:26.760Z,1013.60
2023-02-19T05:08:26.786Z,1013.66
2023-02-19T05:09:26.809Z,1013.69
2023-02-19T05:10:26.841Z,1013.73
2023-02-19T05:11:26.872Z,1013.70
2023-02-19T05:12:26.886Z,1013.76
2023-02-19T05:13:26.951Z,1013.72
2023-02-19T05:14:26.940Z,1013.76
2023-02-19T05:15:26.963Z,1013.78
2023-02-19T05:16:26.994Z,1013.64
2023-02-19T05:17:27.012Z,1013.76
2023-02-19T05:18:27.038Z,1013.77
2023-02-19T05:19:27.065Z,1013.78
2023-02-19T05:20:27.089Z,1013.88
2023-02-19T05:21:27.113Z,1013.76
2023-02-19T05:22:27.149Z,1013.85
2023-02-19T05:23:27.165Z,1013.86
2023-02-19T05:24:27.188Z,1013.85
2023-02-19T05:25:27.213Z,1013.82
2023-02-19T05:26:27.243Z,1013.78
2023-02-19T05:27:27.265Z,1013.83
2023-02-19T05:28:27.440Z,1013.84
2023-02-19T05:29:27.326Z,1013.84
2023-02-19T05:30:27.415Z,1013.85
2023-02-19T05:31:27.430Z,1013.89
2023-02-19T05:32:27.389Z,1013.92
2023-02-19T05:33:27.412Z,1013.93
2023-02-19T05:34:27.439Z,1013.95
2023-02-19T05:35:27.464Z,1014.01
2023-02-19T05:36:27.490Z,1014.00
2023-02-19T05:37:27.520Z,1013.99
2023-02-19T05:38:27.544Z,1014.02
2023-02-19T05:39:27.564Z,1013.99
2023-02-19T05:40:27.589Z,1014.05
2023-02-19T05:41:27.621Z,1014.01
2023-02-19T05:42:27.639Z,1014.05
2023-02-19T05:43:27.663Z,1014.10
2023-02-19T05:44:27.690Z,1014.08
2023-02-19T05:45:27.713Z,1014.20
2023-02-19T05:46:27.812Z,1014.13
2023-02-19T05:47:27.775Z,1014.20
2023-02-19T05:48:27.790Z,1014.20
2023-02-19T05:49:27.886Z,1014.20
2023-02-19T05:50:27.844Z,1014.22
2023-02-19T05:51:27.880Z,1014.24
2023-02-19T05:52:27.889Z,1014.28
2023-02-19T05:53:27.913Z,1014.28
2023-02-19T05:54:28.145Z,1014.32
2023-02-19T05:55:27.964Z,1014.32
2023-02-19T05:56:28.043Z,1014.34
2023-02-19T05:57:28.018Z,1014.34
2023-02-19T05:58:28.043Z,1014.36
2023-02-19T05:59:28.067Z,1014.36
2023-02-19T06:00:28.091Z,1014.36
2023-02-19T06:01:28.121Z,1014.38
2023-02-19T06:02:28.173Z,1014.40
2023-02-19T06:03:28.198Z,1014.38
2023-02-19T06:04:28.191Z,1014.42
2023-02-19T06:05:28.214Z,1014.47
2023-02-19T06:06:28.244Z,1014.42
2023-02-19T06:07:28.266Z,1014.46
2023-02-19T06:08:28.295Z,1014.44
2023-02-19T06:09:28.316Z,1014.49
2023-02-19T06:10:28.370Z,1014.44
2023-02-19T06:11:28.368Z,1014.46
2023-02-19T06:12:28.393Z,1014.51
2023-02-19T06:13:28.417Z,1014.38
2023-02-19T06:14:28.445Z,1014.46
2023-02-19T06:15:28.470Z,1014.44
2023-02-19T06:16:28.524Z,1014.39
2023-02-19T06:17:28.519Z,1014.46
2023-02-19T06:18:28.596Z,1014.42
2023-02-19T06:19:28.569Z,1014.43
2023-02-19T06:20:28.597Z,1014.41
2023-02-19T06:21:28.623Z,1014.46
2023-02-19T06:22:28.670Z,1014.46
2023-02-19T06:23:28.673Z,1014.54
2023-02-19T06:24:28.716Z,1014.52
2023-02-19T06:25:28.719Z,1014.54
2023-02-19T06:26:28.746Z,1014.59
2023-02-19T06:27:28.773Z,1014.53
2023-02-19T06:28:28.796Z,1014.56
2023-02-19T06:29:28.823Z,1014.55
2023-02-19T06:30:28.898Z,1014.53
2023-02-19T06:31:29.013Z,1014.54
2023-02-19T06:32:28.925Z,1014.67
2023-02-19T06:33:28.928Z,1014.55
2023-02-19T06:34:28.948Z,1014.59
2023-02-19T06:35:28.980Z,1014.61
2023-02-19T06:36:29.204Z,1014.69
2023-02-19T06:37:29.028Z,1014.66
2023-02-19T06:38:29.058Z,1014.64
2023-02-19T06:39:29.075Z,1014.64
2023-02-19T06:40:29.100Z,1014.58
2023-02-19T06:41:29.126Z,1014.59
2023-02-19T06:42:29.154Z,1014.64
2023-02-19T06:43:29.179Z,1014.63
2023-02-19T06:44:29.213Z,1014.66
2023-02-19T06:45:29.229Z,1014.66
2023-02-19T06:46:29.272Z,1014.67
2023-02-19T06:47:29.281Z,1014.70
2023-02-19T06:48:29.302Z,1014.73
2023-02-19T06:49:29.329Z,1014.78
2023-02-19T06:50:29.355Z,1014.79
2023-02-19T06:51:29.379Z,1014.78
2023-02-19T06:52:29.402Z,1014.75
2023-02-19T06:53:29.428Z,1014.79
2023-02-19T06:54:29.452Z,1014.81
2023-02-19T06:55:29.481Z,1014.85
2023-02-19T06:56:29.504Z,1014.83
2023-02-19T06:57:29.530Z,1014.80
2023-02-19T06:58:29.556Z,1014.84
2023-02-19T06:59:29.579Z,1014.87
2023-02-19T07:00:29.618Z,1014.79
2023-02-19T07:01:29.631Z,1014.80
2023-02-19T07:02:29.649Z,1014.84
2023-02-19T07:03:29.678Z,1014.90
2023-02-19T07:04:29.758Z,1014.91
2023-02-19T07:05:29.732Z,1015.02
2023-02-19T07:06:29.750Z,1015.02
2023-02-19T07:07:29.779Z,1015.01
2023-02-19T07:08:29.804Z,1015.01
2023-02-19T07:09:29.835Z,1015.01
2023-02-19T07:10:29.850Z,1015.00
2023-02-19T07:11:29.875Z,1015.04
2023-02-19T07:12:29.898Z,1015.08
2023-02-19T07:13:29.928Z,1015.05
2023-02-19T07:14:29.955Z,1015.13
2023-02-19T07:15:29.977Z,1015.15
2023-02-19T07:16:30.116Z,1015.10
2023-02-19T07:17:30.034Z,1015.23
2023-02-19T07:18:30.046Z,1015.21
2023-02-19T07:19:30.075Z,1015.23
2023-02-19T07:20:30.136Z,1015.28
2023-02-19T07:21:30.185Z,1015.29
2023-02-19T07:22:30.148Z,1015.32
2023-02-19T07:23:30.174Z,1015.29
2023-02-19T07:24:30.199Z,1015.32
2023-02-19T07:25:30.226Z,1015.35
2023-02-19T07:26:30.246Z,1015.37
2023-02-19T07:27:30.274Z,1015.34
2023-02-19T07:28:30.298Z,1015.32
2023-02-19T07:29:30.526Z,1015.39
2023-02-19T07:30:30.504Z,1015.38
2023-02-19T07:31:30.416Z,1015.38
2023-02-19T07:32:30.399Z,1015.37
2023-02-19T07:33:30.427Z,1015.39
2023-02-19T07:34:30.452Z,1015.42
2023-02-19T07:35:30.474Z,1015.39
2023-02-19T07:36:30.651Z,1015.46
2023-02-19T07:37:30.525Z,1015.47
2023-02-19T07:38:30.555Z,1015.50
2023-02-19T07:39:30.576Z,1015.56
2023-02-19T07:40:30.601Z,1015.56
2023-02-19T07:41:30.627Z,1015.57
2023-02-19T07:42:30.656Z,1015.61
2023-02-19T07:43:30.678Z,1015.65
2023-02-19T07:44:30.701Z,1015.66
2023-02-19T07:45:30.747Z,1015.68
2023-02-19T07:46:30.753Z,1015.81
2023-02-19T07:47:30.779Z,1015.80
2023-02-19T07:48:30.813Z,1015.86
2023-02-19T07:49:30.829Z,1015.84
2023-02-19T07:50:30.856Z,1015.82
2023-02-19T07:51:30.880Z,1015.94
2023-02-19T07:52:30.903Z,1015.90
2023-02-19T07:53:30.932Z,1015.89
2023-02-19T07:54:30.954Z,1015.91
2023-02-19T07:55:30.981Z,1015.86
2023-02-19T07:56:31.005Z,1015.88
2023-02-19T07:57:31.044Z,1015.82
2023-02-19T07:58:31.104Z,1015.90
2023-02-19T07:59:31.085Z,1015.89
2023-02-19T08:00:31.106Z,1015.84
2023-02-19T08:01:31.164Z,1015.90
2023-02-19T08:02:31.157Z,1015.90
2023-02-19T08:03:31.260Z,1015.91
2023-02-19T08:04:31.204Z,1015.97
2023-02-19T08:05:31.232Z,1015.96
2023-02-19T08:06:31.257Z,1016.02
2023-02-19T08:07:31.288Z,1015.96
2023-02-19T08:08:31.308Z,1016.08
2023-02-19T08:09:31.333Z,1016.00
2023-02-19T08:10:31.359Z,1016.03
2023-02-19T08:11:31.384Z,1016.08
2023-02-19T08:12:31.406Z,1016.10
2023-02-19T08:13:31.432Z,1016.18
2023-02-19T08:14:31.467Z,1016.20
2023-02-19T08:15:31.483Z,1016.15
2023-02-19T08:16:42.550Z,1016.13
2023-02-19T08:17:31.531Z,1016.17
2023-02-19T08:18:31.562Z,1016.13
2023-02-19T08:19:31.583Z,1016.11
2023-02-19T08:20:31.604Z,1016.20
2023-02-19T08:21:33.510Z,1016.16
2023-02-19T08:22:31.658Z,1016.17
2023-02-19T08:23:31.683Z,1016.26
2023-02-19T08:24:31.706Z,1016.31
2023-02-19T08:25:31.734Z,1016.31
2023-02-19T08:26:31.757Z,1016.28
2023-02-19T08:27:31.783Z,1016.32
2023-02-19T08:28:31.804Z,1016.29
2023-02-19T08:29:31.833Z,1016.31
2023-02-19T08:30:32.013Z,1016.32
2023-02-19T08:31:32.045Z,1016.36
2023-02-19T08:32:31.909Z,1016.30
2023-02-19T08:33:31.934Z,1016.32
2023-02-19T08:34:31.958Z,1016.35
2023-02-19T08:35:31.984Z,1016.41
2023-02-19T08:36:32.009Z,1016.44
2023-02-19T08:37:32.034Z,1016.47
2023-02-19T08:38:32.057Z,1016.43
2023-02-19T08:39:32.085Z,1016.50
2023-02-19T08:40:32.115Z,1016.50
2023-02-19T08:41:32.134Z,1016.44
2023-02-19T08:42:32.169Z,1016.49
2023-02-19T08:43:32.187Z,1016.52
2023-02-19T08:44:32.210Z,1016.52
2023-02-19T08:45:32.241Z,1016.56
2023-02-19T08:46:34.334Z,1016.52
2023-02-19T08:47:32.287Z,1016.54
2023-02-19T08:48:32.309Z,1016.52
2023-02-19T08:49:32.347Z,1016.59
2023-02-19T08:50:32.362Z,1016.59
2023-02-19T08:51:32.386Z,1016.56
2023-02-19T08:52:32.415Z,1016.48
2023-02-19T08:53:32.446Z,1016.49
2023-02-19T08:54:32.526Z,1016.55
2023-02-19T08:55:32.489Z,1016.51
2023-02-19T08:56:32.525Z,1016.54
2023-02-19T08:57:32.539Z,1016.52
2023-02-19T08:58:32.563Z,1016.62
2023-02-19T08:59:32.599Z,1016.60
2023-02-19T09:00:32.614Z,1016.63
2023-02-19T09:01:32.808Z,1016.59
2023-02-19T09:02:32.664Z,1016.62
2023-02-19T09:03:32.692Z,1016.66
2023-02-19T09:04:32.868Z,1016.62
2023-02-19T09:05:32.743Z,1016.66
2023-02-19T09:06:32.774Z,1016.64
2023-02-19T09:07:32.795Z,1016.66
2023-02-19T09:08:32.822Z,1016.73
2023-02-19T09:09:32.845Z,1016.71
2023-02-19T09:10:32.870Z,1016.73
2023-02-19T09:11:32.900Z,1016.76
2023-02-19T09:12:32.921Z,1016.71
2023-02-19T09:13:32.947Z,1016.70
2023-02-19T09:14:32.977Z,1016.68
2023-02-19T09:15:33.014Z,1016.67
2023-02-19T09:16:33.026Z,1016.67
2023-02-19T09:17:33.051Z,1016.65
2023-02-19T09:18:33.091Z,1016.66
2023-02-19T09:19:33.110Z,1016.69
2023-02-19T09:20:33.135Z,1016.72
2023-02-19T09:21:33.158Z,1016.64
2023-02-19T09:22:33.183Z,1016.65
2023-02-19T09:23:33.212Z,1016.77
2023-02-19T09:24:33.252Z,1016.74
2023-02-19T09:25:33.266Z,1016.74
2023-02-19T09:26:33.290Z,1016.71
2023-02-19T09:27:33.321Z,1016.68
2023-02-19T09:28:33.343Z,1016.77
2023-02-19T09:29:33.379Z,1016.76
2023-02-19T09:30:33.453Z,1016.75
2023-02-19T09:31:33.562Z,1016.78
2023-02-19T09:32:33.463Z,1016.77
2023-02-19T09:33:33.477Z,1016.80
2023-02-19T09:34:33.506Z,1016.83
2023-02-19T09:35:33.544Z,1016.75
2023-02-19T09:36:33.562Z,1016.84
2023-02-19T09:37:34.255Z,1016.84
2023-02-19T09:38:33.618Z,1016.90
2023-02-19T09:39:33.635Z,1016.87
2023-02-19T09:40:33.663Z,1016.96
2023-02-19T09:41:33.687Z,1016.99
2023-02-19T09:42:33.713Z,1016.93
2023-02-19T09:43:33.744Z,1016.92
2023-02-19T09:44:33.765Z,1016.94
2023-02-19T09:45:33.794Z,1016.98
2023-02-19T09:46:33.886Z,1016.93
2023-02-19T09:47:33.848Z,1016.92
2023-02-19T09:48:33.873Z,1017.09
2023-02-19T09:49:33.901Z,1016.99
2023-02-19T09:50:33.931Z,1017.03
2023-02-19T09:51:33.962Z,1017.05
2023-02-19T09:52:33.975Z,1016.99
2023-02-19T09:53:34.003Z,1017.02
2023-02-19T09:54:34.026Z,1017.05
2023-02-19T09:55:34.057Z,1017.12
2023-02-19T09:56:34.083Z,1017.16
2023-02-19T09:57:34.154Z,1017.08
2023-02-19T09:58:34.134Z,1017.15
2023-02-19T09:59:34.158Z,1017.15
2023-02-19T10:00:34.197Z,1017.19
2023-02-19T10:01:34.257Z,1017.09
2023-02-19T10:02:34.239Z,1017.11
2023-02-19T10:03:34.285Z,1017.11
2023-02-19T10:04:34.301Z,1017.16
2023-02-19T10:05:34.320Z,1017.19
2023-02-19T10:06:34.338Z,1017.14
2023-02-19T10:07:34.396Z,1017.19
2023-02-19T10:08:34.418Z,1017.20
2023-02-19T10:09:34.418Z,1017.21
2023-02-19T10:10:34.445Z,1017.17
2023-02-19T10:11:34.473Z,1017.22
2023-02-19T10:12:34.498Z,1017.21
2023-02-19T10:13:34.525Z,1017.23
2023-02-19T10:14:34.548Z,1017.30
2023-02-19T10:15:34.604Z,1017.28
2023-02-19T10:16:34.598Z,1017.25
2023-02-19T10:17:34.648Z,1017.26
2023-02-19T10:18:34.652Z,1017.25
2023-02-19T10:19:34.695Z,1017.25
2023-02-19T10:20:34.720Z,1017.34
2023-02-19T10:21:34.731Z,1017.35
2023-02-19T10:22:34.753Z,1017.35
2023-02-19T10:23:34.784Z,1017.39
2023-02-19T10:24:36.904Z,1017.49
2023-02-19T10:25:34.835Z,1017.45
2023-02-19T10:26:34.860Z,1017.43
2023-02-19T10:27:34.886Z,1017.57
2023-02-19T10:28:34.922Z,1017.63
2023-02-19T10:29:34.940Z,1017.60
2023-02-19T10:30:35.018Z,1017.67
2023-02-19T10:31:35.113Z,1017.71
2023-02-19T10:32:35.015Z,1017.70
2023-02-19T10:33:35.043Z,1017.69
2023-02-19T10:34:35.069Z,1017.68
2023-02-19T10:35:35.100Z,1017.70
2023-02-19T10:36:35.127Z,1017.64
2023-02-19T10:37:35.150Z,1017.65
2023-02-19T10:38:35.176Z,1017.70
2023-02-19T10:39:35.204Z,1017.66
2023-02-19T10:40:35.227Z,1017.65
2023-02-19T10:41:35.251Z,1017.72
2023-02-19T10:42:35.280Z,1017.68
2023-02-19T10:43:35.304Z,1017.87
2023-02-19T10:44:35.333Z,1017.69
2023-02-19T10:45:35.370Z,1017.80
2023-02-19T10:46:35.442Z,1017.87
2023-02-19T10:47:35.410Z,1017.81
2023-02-19T10:48:35.438Z,1017.83
2023-02-19T10:49:35.463Z,1017.85
2023-02-19T10:50:35.492Z,1017.95
2023-02-19T10:51:35.515Z,1017.95
2023-02-19T10:52:35.558Z,1018.01
2023-02-19T10:53:35.586Z,1018.01
2023-02-19T10:54:35.594Z,1018.10
2023-02-19T10:55:37.905Z,1018.08
2023-02-19T10:56:35.649Z,1018.11
2023-02-19T10:57:35.671Z,1018.18
2023-02-19T10:58:35.700Z,1018.14
2023-02-19T10:59:35.732Z,1018.08
2023-02-19T11:00:35.751Z,1018.20
2023-02-19T11:01:35.797Z,1018.07
2023-02-19T11:02:35.806Z,1018.06
2023-02-19T11:03:35.829Z,1018.09
2023-02-19T11:04:35.892Z,1018.06
2023-02-19T11:05:35.884Z,1018.11
2023-02-19T11:06:35.906Z,1018.15
2023-02-19T11:07:35.934Z,1018.16
2023-02-19T11:08:35.960Z,1018.19
2023-02-19T11:09:35.993Z,1018.18
2023-02-19T11:10:36.011Z,1018.19
2023-02-19T11:11:36.052Z,1018.13
2023-02-19T11:12:36.062Z,1018.10
2023-02-19T11:13:36.088Z,1018.17
2023-02-19T11:14:36.115Z,1018.16
2023-02-19T11:15:36.140Z,1018.16
2023-02-19T11:16:36.168Z,1018.15
2023-02-19T11:17:36.192Z,1018.10
2023-02-19T11:18:36.314Z,1018.19
2023-02-19T11:19:36.250Z,1018.24
2023-02-19T11:20:36.277Z,1018.19
2023-02-19T11:21:36.296Z,1018.14
2023-02-19T11:22:36.328Z,1018.17
2023-02-19T11:23:36.351Z,1018.13
2023-02-19T11:24:36.378Z,1018.20
2023-02-19T11:25:36.407Z,1018.19
2023-02-19T11:26:36.431Z,1018.20
2023-02-19T11:27:36.464Z,1018.21
2023-02-19T11:28:36.484Z,1018.23
2023-02-19T11:29:36.510Z,1018.20
2023-02-19T11:30:36.721Z,1018.20
2023-02-19T11:31:36.768Z,1018.22
2023-02-19T11:32:36.589Z,1018.28
2023-02-19T11:33:36.615Z,1018.22
2023-02-19T11:34:36.644Z,1018.26
2023-02-19T11:35:36.670Z,1018.18
2023-02-19T11:36:36.698Z,1018.14
2023-02-19T11:37:36.724Z,1018.14
2023-02-19T11:38:36.753Z,1018.17
2023-02-19T11:39:36.784Z,1018.18
2023-02-19T11:40:36.818Z,1018.19
2023-02-19T11:41:36.840Z,1018.18
2023-02-19T11:42:36.866Z,1018.16
2023-02-19T11:43:36.902Z,1018.13
2023-02-19T11:44:36.922Z,1018.07
2023-02-19T11:45:36.956Z,1018.00
2023-02-19T11:46:37.011Z,1018.05
2023-02-19T11:47:37.018Z,1018.00
2023-02-19T11:48:37.030Z,1018.06
2023-02-19T11:49:37.060Z,1017.90
2023-02-19T11:50:37.082Z,1018.03
2023-02-19T11:51:37.120Z,1017.99
2023-02-19T11:52:37.148Z,1018.03
2023-02-19T11:53:37.194Z,1018.05
2023-02-19T11:54:37.193Z,1018.01
2023-02-19T11:55:37.217Z,1018.08
2023-02-19T11:56:37.257Z,1018.07
2023-02-19T11:57:37.269Z,1018.05
2023-02-19T11:58:37.301Z,1018.11
2023-02-19T11:59:37.323Z,1018.08
2023-02-19T12:00:37.353Z,1018.18
2023-02-19T12:01:37.448Z,1018.12
2023-02-19T12:02:37.408Z,1018.14
2023-02-19T12:03:37.431Z,1018.19
2023-02-19T12:04:37.907Z,1018.20
2023-02-19T12:05:37.485Z,1018.18